createdAt,value
2019-03-30T00:00:57.478Z,11.13
2019-03-30T00:03:27.324Z,11.13
2019-03-30T00:05:57.124Z,11.47
2019-03-30T00:08:27.031Z,12.57
2019-03-30T00:10:56.823Z,11.00
2019-03-30T00:13:26.666Z,12.60
2019-03-30T00:15:56.555Z,13.20
2019-03-30T00:18:26.431Z,14.70
2019-03-30T00:20:56.229Z,13.80
2019-03-30T00:23:26.087Z,14.10
2019-03-30T00:25:55.979Z,29.40
2019-03-30T00:28:25.911Z,15.47
2019-03-30T00:30:55.715Z,16.30
2019-03-30T00:33:25.632Z,15.30
2019-03-30T00:35:55.503Z,15.37
2019-03-30T00:38:25.358Z,16.13
2019-03-30T00:40:55.206Z,14.60
2019-03-30T00:43:25.094Z,14.30
2019-03-30T00:45:54.902Z,15.87
2019-03-30T00:48:24.751Z,14.70
2019-03-30T00:50:54.555Z,16.50
2019-03-30T00:53:24.770Z,17.07
2019-03-30T00:55:54.618Z,16.83
2019-03-30T00:58:25.689Z,15.97
2019-03-30T01:00:55.721Z,16.70
2019-03-30T01:03:25.625Z,18.00
2019-03-30T01:05:58.193Z,17.83
2019-03-30T01:08:27.005Z,17.20
2019-03-30T01:10:56.933Z,17.47
2019-03-30T01:13:26.841Z,16.80
2019-03-30T01:15:56.649Z,15.33
2019-03-30T01:18:26.489Z,15.40
2019-03-30T01:20:56.311Z,15.43
2019-03-30T01:23:26.416Z,15.27
2019-03-30T01:25:56.280Z,17.17
2019-03-30T01:28:26.193Z,16.13
2019-03-30T01:30:56.121Z,14.07
2019-03-30T01:33:26.062Z,15.83
2019-03-30T01:35:55.860Z,15.60
2019-03-30T01:38:25.652Z,14.83
2019-03-30T01:40:55.576Z,15.43
2019-03-30T01:43:25.432Z,14.17
2019-03-30T01:45:55.203Z,14.03
2019-03-30T01:48:25.044Z,13.70
2019-03-30T01:50:54.972Z,13.70
2019-03-30T01:53:24.884Z,14.20
2019-03-30T01:55:54.744Z,14.53
2019-03-30T01:58:24.560Z,14.83
2019-03-30T02:00:54.372Z,15.03
2019-03-30T02:03:24.247Z,13.33
2019-03-30T02:05:54.140Z,14.53
2019-03-30T02:08:23.996Z,14.93
2019-03-30T02:10:53.820Z,13.77
2019-03-30T02:13:23.695Z,14.50
2019-03-30T02:15:53.544Z,15.50
2019-03-30T02:18:23.447Z,13.47
2019-03-30T02:20:53.256Z,13.43
2019-03-30T02:23:23.184Z,14.50
2019-03-30T02:25:53.043Z,13.50
2019-03-30T02:28:22.955Z,13.97
2019-03-30T02:30:52.881Z,13.40
2019-03-30T02:33:23.073Z,12.83
2019-03-30T02:35:52.969Z,12.70
2019-03-30T02:38:22.786Z,12.07
2019-03-30T02:40:52.615Z,13.80
2019-03-30T02:43:22.627Z,12.63
2019-03-30T02:45:52.447Z,12.53
2019-03-30T02:48:22.296Z,11.73
2019-03-30T02:50:52.080Z,12.03
2019-03-30T02:53:21.973Z,13.03
2019-03-30T02:55:51.787Z,12.33
2019-03-30T02:58:21.623Z,11.87
2019-03-30T03:00:51.487Z,13.30
2019-03-30T03:03:21.271Z,11.80
2019-03-30T03:05:51.187Z,11.33
2019-03-30T03:08:20.974Z,12.73
2019-03-30T03:10:50.795Z,11.73
2019-03-30T03:13:20.587Z,13.03
2019-03-30T03:15:50.540Z,12.23
2019-03-30T03:18:20.353Z,11.50
2019-03-30T03:21:06.793Z,11.63
2019-03-30T03:23:22.009Z,11.97
2019-03-30T03:25:51.887Z,11.37
2019-03-30T03:28:21.736Z,11.33
2019-03-30T03:30:51.635Z,11.47
2019-03-30T03:33:21.503Z,12.03
2019-03-30T03:35:51.322Z,12.77
2019-03-30T03:38:21.098Z,11.03
2019-03-30T03:40:50.975Z,11.87
2019-03-30T03:43:20.938Z,11.83
2019-03-30T03:45:50.907Z,12.90
2019-03-30T03:48:20.679Z,12.40
2019-03-30T03:50:57.469Z,11.37
2019-03-30T03:53:27.304Z,15.17
2019-03-30T03:55:58.488Z,13.73
2019-03-30T03:58:31.467Z,15.17
2019-03-30T04:01:02.911Z,14.70
2019-03-30T04:03:34.639Z,14.00
2019-03-30T04:06:07.874Z,14.60
2019-03-30T04:08:38.838Z,14.30
2019-03-30T04:11:10.409Z,14.63
2019-03-30T04:13:42.355Z,15.20
2019-03-30T04:16:12.225Z,15.47
2019-03-30T04:18:42.106Z,15.73
2019-03-30T04:21:11.949Z,16.80
2019-03-30T04:23:41.850Z,14.73
2019-03-30T04:26:11.618Z,16.23
2019-03-30T04:28:41.462Z,17.03
2019-03-30T04:31:11.310Z,18.13
2019-03-30T04:33:41.151Z,14.20
2019-03-30T04:36:10.945Z,13.70
2019-03-30T04:38:40.794Z,14.77
2019-03-30T04:41:11.565Z,13.87
2019-03-30T04:43:41.397Z,14.50
2019-03-30T04:46:11.233Z,13.63
2019-03-30T04:48:41.057Z,14.00
2019-03-30T04:51:10.860Z,13.70
2019-03-30T04:53:40.792Z,15.40
2019-03-30T04:56:10.665Z,13.70
2019-03-30T04:58:40.549Z,15.67
2019-03-30T05:01:10.386Z,14.90
2019-03-30T05:03:40.248Z,13.73
2019-03-30T05:06:10.177Z,12.70
2019-03-30T05:08:40.044Z,13.17
2019-03-30T05:11:09.908Z,12.23
2019-03-30T05:13:39.685Z,11.80
2019-03-30T05:16:09.510Z,12.30
2019-03-30T05:18:39.377Z,12.17
2019-03-30T05:21:09.248Z,12.00
2019-03-30T05:23:39.038Z,11.83
2019-03-30T05:26:08.897Z,13.27
2019-03-30T05:28:38.744Z,11.80
2019-03-30T05:31:08.652Z,13.63
2019-03-30T05:33:38.465Z,11.07
2019-03-30T05:36:08.248Z,12.40
2019-03-30T05:38:38.093Z,12.63
2019-03-30T05:41:07.892Z,12.50
2019-03-30T05:43:37.868Z,11.90
2019-03-30T05:46:07.717Z,11.27
2019-03-30T05:48:37.523Z,10.73
2019-03-30T05:51:07.352Z,12.07
2019-03-30T05:53:37.172Z,10.90
2019-03-30T05:56:07.100Z,11.30
2019-03-30T05:58:36.893Z,11.40
2019-03-30T06:01:06.772Z,10.77
2019-03-30T06:03:36.604Z,11.23
2019-03-30T06:06:06.468Z,10.10
2019-03-30T06:08:36.355Z,10.30
2019-03-30T06:11:06.474Z,9.73
2019-03-30T06:13:36.383Z,9.90
2019-03-30T06:16:06.191Z,11.50
2019-03-30T06:18:36.101Z,9.53
2019-03-30T06:21:05.912Z,10.13
2019-03-30T06:23:35.727Z,9.47
2019-03-30T06:26:05.552Z,9.33
2019-03-30T06:28:35.407Z,9.67
2019-03-30T06:31:05.279Z,9.27
2019-03-30T06:33:35.059Z,10.07
2019-03-30T06:36:04.906Z,9.50
2019-03-30T06:38:34.795Z,8.73
2019-03-30T06:41:04.711Z,10.47
2019-03-30T06:43:34.563Z,9.03
2019-03-30T06:46:04.507Z,9.63
2019-03-30T06:48:36.122Z,10.17
2019-03-30T06:51:05.819Z,8.53
2019-03-30T06:53:35.619Z,8.87
2019-03-30T06:56:05.446Z,9.43
2019-03-30T06:58:35.279Z,9.90
2019-03-30T07:01:05.310Z,8.73
2019-03-30T07:03:35.289Z,8.97
2019-03-30T07:06:05.163Z,8.27
2019-03-30T07:08:35.510Z,9.50
2019-03-30T07:11:05.374Z,9.17
2019-03-30T07:13:39.303Z,7.63
2019-03-30T07:16:09.123Z,8.13
2019-03-30T07:18:40.178Z,8.43
2019-03-30T07:21:10.028Z,8.00
2019-03-30T07:23:39.869Z,9.70
2019-03-30T07:26:09.776Z,9.23
2019-03-30T07:28:40.138Z,8.70
2019-03-30T07:31:09.962Z,8.53
2019-03-30T07:33:39.916Z,8.33
2019-03-30T07:36:09.782Z,9.40
2019-03-30T07:38:39.610Z,8.50
2019-03-30T07:41:09.418Z,8.70
2019-03-30T07:43:39.318Z,7.70
2019-03-30T07:46:09.182Z,9.00
2019-03-30T07:48:39.077Z,9.07
2019-03-30T07:51:09.042Z,10.27
2019-03-30T07:53:44.711Z,9.60
2019-03-30T07:56:10.526Z,8.73
2019-03-30T07:58:40.489Z,9.33
2019-03-30T08:01:10.409Z,9.30
2019-03-30T08:03:40.273Z,9.07
2019-03-30T08:06:10.226Z,7.97
2019-03-30T08:08:40.067Z,9.90
2019-03-30T08:11:09.920Z,10.17
2019-03-30T08:13:39.749Z,9.10
2019-03-30T08:16:09.545Z,9.60
2019-03-30T08:18:39.389Z,9.60
2019-03-30T08:21:09.157Z,9.57
2019-03-30T08:23:40.466Z,10.33
2019-03-30T08:26:10.792Z,9.90
2019-03-30T08:28:40.759Z,9.93
2019-03-30T08:31:10.929Z,9.57
2019-03-30T08:33:40.737Z,9.77
2019-03-30T08:36:10.573Z,9.97
2019-03-30T08:38:40.425Z,10.07
2019-03-30T08:41:10.292Z,11.23
2019-03-30T08:43:40.136Z,10.50
2019-03-30T08:46:10.029Z,10.43
2019-03-30T08:48:39.879Z,10.87
2019-03-30T08:51:09.721Z,11.63
2019-03-30T08:53:53.579Z,12.30
2019-03-30T08:56:11.139Z,15.57
2019-03-30T08:58:40.993Z,11.40
2019-03-30T09:01:10.933Z,10.63
2019-03-30T09:03:40.810Z,10.63
2019-03-30T09:06:10.649Z,10.47
2019-03-30T09:08:40.465Z,10.57
2019-03-30T09:11:10.326Z,12.57
2019-03-30T09:13:40.182Z,13.17
2019-03-30T09:16:09.929Z,11.30
2019-03-30T09:18:39.869Z,10.93
2019-03-30T09:21:09.772Z,11.50
2019-03-30T09:23:39.649Z,10.67
2019-03-30T09:26:09.617Z,11.00
2019-03-30T09:28:39.466Z,11.47
2019-03-30T09:31:09.306Z,11.63
2019-03-30T09:33:39.132Z,10.70
2019-03-30T09:36:09.024Z,11.03
2019-03-30T09:38:38.865Z,11.33
2019-03-30T09:41:08.791Z,11.83
2019-03-30T09:43:38.685Z,10.57
2019-03-30T09:46:08.708Z,11.00
2019-03-30T09:48:38.636Z,10.73
2019-03-30T09:51:08.436Z,11.53
2019-03-30T09:53:38.257Z,11.70
2019-03-30T09:56:08.112Z,12.73
2019-03-30T09:58:37.988Z,12.17
2019-03-30T10:01:07.856Z,12.63
2019-03-30T10:03:37.648Z,14.03
2019-03-30T10:06:07.576Z,12.00
2019-03-30T10:08:37.512Z,12.37
2019-03-30T10:11:07.312Z,12.67
2019-03-30T10:13:37.147Z,12.67
2019-03-30T10:16:07.283Z,13.37
2019-03-30T10:18:39.055Z,12.23
2019-03-30T10:21:08.884Z,13.17
2019-03-30T10:23:38.774Z,13.37
2019-03-30T10:26:08.631Z,12.40
2019-03-30T10:28:38.427Z,14.87
2019-03-30T10:31:08.271Z,13.57
2019-03-30T10:33:38.455Z,13.43
2019-03-30T10:36:08.311Z,13.60
2019-03-30T10:38:38.199Z,13.77
2019-03-30T10:41:08.053Z,14.57
2019-03-30T10:43:37.960Z,14.40
2019-03-30T10:46:07.771Z,15.43
2019-03-30T10:48:37.695Z,14.03
2019-03-30T10:51:07.551Z,13.97
2019-03-30T10:53:37.321Z,12.93
2019-03-30T10:56:07.315Z,12.67
2019-03-30T10:58:37.545Z,12.77
2019-03-30T11:01:07.354Z,12.73
2019-03-30T11:03:37.119Z,12.80
2019-03-30T11:06:07.010Z,13.67
2019-03-30T11:08:36.879Z,13.10
2019-03-30T11:11:06.840Z,13.60
2019-03-30T11:13:36.730Z,13.17
2019-03-30T11:16:07.550Z,12.60
2019-03-30T11:18:37.403Z,12.53
2019-03-30T11:21:07.211Z,14.17
2019-03-30T11:23:37.121Z,12.33
2019-03-30T11:26:07.023Z,12.73
2019-03-30T11:28:36.846Z,13.83
2019-03-30T11:31:06.650Z,14.23
2019-03-30T11:33:36.470Z,14.07
2019-03-30T11:36:06.615Z,13.83
2019-03-30T11:38:36.634Z,15.10
2019-03-30T11:41:06.757Z,13.87
2019-03-30T11:43:36.561Z,13.10
2019-03-30T11:46:06.490Z,14.93
2019-03-30T11:48:37.584Z,14.03
2019-03-30T11:51:07.720Z,12.10
2019-03-30T11:53:37.588Z,14.30
2019-03-30T11:56:07.531Z,14.43
2019-03-30T11:58:37.349Z,14.47
2019-03-30T12:01:07.276Z,14.90
2019-03-30T12:03:37.103Z,13.70
2019-03-30T12:06:06.975Z,13.17
2019-03-30T12:08:36.788Z,12.73
2019-03-30T12:11:06.637Z,13.73
2019-03-30T12:13:36.427Z,13.77
2019-03-30T12:16:06.268Z,14.07
2019-03-30T12:18:36.053Z,17.80
2019-03-30T12:21:05.909Z,14.27
2019-03-30T12:23:35.760Z,14.10
2019-03-30T12:26:05.720Z,15.37
2019-03-30T12:28:35.519Z,16.17
2019-03-30T12:31:05.349Z,13.37
2019-03-30T12:33:35.211Z,13.73
2019-03-30T12:36:05.160Z,18.87
2019-03-30T12:38:35.051Z,15.63
2019-03-30T12:41:04.983Z,15.03
2019-03-30T12:43:35.229Z,15.90
2019-03-30T12:46:05.071Z,16.30
2019-03-30T12:48:35.002Z,15.53
2019-03-30T12:51:04.896Z,13.57
2019-03-30T12:53:34.787Z,15.77
2019-03-30T12:56:04.706Z,15.90
2019-03-30T12:58:34.516Z,15.17
2019-03-30T13:01:04.322Z,15.93
2019-03-30T13:03:34.155Z,13.77
2019-03-30T13:06:03.974Z,14.87
2019-03-30T13:08:33.851Z,15.43
2019-03-30T13:11:03.639Z,15.30
2019-03-30T13:13:33.479Z,15.80
2019-03-30T13:16:03.284Z,17.03
2019-03-30T13:18:33.123Z,16.83
2019-03-30T13:21:02.915Z,15.67
2019-03-30T13:23:32.719Z,14.80
2019-03-30T13:26:04.167Z,15.87
2019-03-30T13:28:34.128Z,13.33
2019-03-30T13:31:03.984Z,13.10
2019-03-30T13:33:33.013Z,13.37
2019-03-30T13:36:02.928Z,14.07
2019-03-30T13:38:32.780Z,17.03
2019-03-30T13:41:02.621Z,16.07
2019-03-30T13:43:32.502Z,12.97
2019-03-30T13:46:02.444Z,13.40
2019-03-30T13:48:32.488Z,14.73
2019-03-30T13:51:02.420Z,15.47
2019-03-30T13:53:32.240Z,14.93
2019-03-30T13:56:02.184Z,13.40
2019-03-30T13:58:32.064Z,14.73
2019-03-30T14:01:01.902Z,13.93
2019-03-30T14:03:31.753Z,13.40
2019-03-30T14:06:01.631Z,15.37
2019-03-30T14:08:31.473Z,14.07
2019-03-30T14:11:01.267Z,11.70
2019-03-30T14:13:31.296Z,14.40
2019-03-30T14:16:01.627Z,15.33
2019-03-30T14:18:31.554Z,15.97
2019-03-30T14:21:01.487Z,14.13
2019-03-30T14:23:31.283Z,13.00
2019-03-30T14:26:01.145Z,12.40
2019-03-30T14:28:31.035Z,13.73
2019-03-30T14:31:00.871Z,15.33
2019-03-30T14:33:30.704Z,14.57
2019-03-30T14:36:00.519Z,13.13
2019-03-30T14:38:30.388Z,11.50
2019-03-30T14:41:03.772Z,13.80
2019-03-30T14:43:32.859Z,13.77
2019-03-30T14:46:02.731Z,13.10
2019-03-30T14:48:32.667Z,12.30
2019-03-30T14:51:02.500Z,14.73
2019-03-30T14:53:32.450Z,13.10
2019-03-30T14:56:02.277Z,14.90
2019-03-30T14:58:32.178Z,13.53
2019-03-30T15:01:03.312Z,12.50
2019-03-30T15:03:33.206Z,13.17
2019-03-30T15:06:03.102Z,14.13
2019-03-30T15:08:32.939Z,13.60
2019-03-30T15:11:02.859Z,11.93
2019-03-30T15:13:32.724Z,12.97
2019-03-30T15:16:02.574Z,12.67
2019-03-30T15:18:32.386Z,12.50
2019-03-30T15:21:02.266Z,12.47
2019-03-30T15:23:32.080Z,12.43
2019-03-30T15:26:02.056Z,11.77
2019-03-30T15:28:31.880Z,12.17
2019-03-30T15:31:01.727Z,11.20
2019-03-30T15:33:31.586Z,11.27
2019-03-30T15:36:01.670Z,11.93
2019-03-30T15:38:31.527Z,15.60
2019-03-30T15:41:01.494Z,13.10
2019-03-30T15:43:38.300Z,12.63
2019-03-30T15:46:03.035Z,16.40
2019-03-30T15:48:33.282Z,17.60
2019-03-30T15:51:03.146Z,14.03
2019-03-30T15:53:33.111Z,11.90
2019-03-30T15:56:03.097Z,13.37
2019-03-30T15:58:32.918Z,13.23
2019-03-30T16:01:02.825Z,12.77
2019-03-30T16:03:32.726Z,16.20
2019-03-30T16:06:02.622Z,14.00
2019-03-30T16:08:32.551Z,14.97
2019-03-30T16:11:02.341Z,13.83
2019-03-30T16:13:32.174Z,16.80
2019-03-30T16:16:02.005Z,14.13
2019-03-30T16:18:31.815Z,16.03
2019-03-30T16:21:01.727Z,13.73
2019-03-30T16:23:31.546Z,14.20
2019-03-30T16:26:01.386Z,14.80
2019-03-30T16:28:31.266Z,17.30
2019-03-30T16:31:01.305Z,16.77
2019-03-30T16:33:31.106Z,33.40
2019-03-30T16:36:02.705Z,37.93
2019-03-30T16:38:32.386Z,21.93
2019-03-30T16:41:03.220Z,21.37
2019-03-30T16:43:33.017Z,19.93
2019-03-30T16:46:02.848Z,23.13
2019-03-30T16:48:32.672Z,22.77
2019-03-30T16:51:02.538Z,28.47
2019-03-30T16:53:32.504Z,37.80
2019-03-30T16:56:02.294Z,27.40
2019-03-30T16:58:32.162Z,25.20
2019-03-30T17:01:01.981Z,22.60
2019-03-30T17:03:31.808Z,23.37
2019-03-30T17:06:01.583Z,30.17
2019-03-30T17:08:31.775Z,28.70
2019-03-30T17:11:02.449Z,23.77
2019-03-30T17:13:32.355Z,23.20
2019-03-30T17:16:02.153Z,19.87
2019-03-30T17:18:31.981Z,19.77
2019-03-30T17:21:01.918Z,22.33
2019-03-30T17:23:31.761Z,32.47
2019-03-30T17:26:01.583Z,37.90
2019-03-30T17:28:31.499Z,51.87
2019-03-30T17:31:01.263Z,52.47
2019-03-30T17:33:31.159Z,49.23
2019-03-30T17:36:01.015Z,48.07
2019-03-30T17:38:30.793Z,58.37
2019-03-30T17:41:00.677Z,71.37
2019-03-30T17:43:30.556Z,67.80
2019-03-30T17:46:00.394Z,66.57
2019-03-30T17:48:30.248Z,61.23
2019-03-30T17:51:00.072Z,60.63
2019-03-30T17:53:29.917Z,54.63
2019-03-30T17:56:01.831Z,66.57
2019-03-30T17:58:31.282Z,59.73
2019-03-30T18:01:01.304Z,77.20
2019-03-30T18:03:31.190Z,59.03
2019-03-30T18:06:00.958Z,52.67
2019-03-30T18:08:30.698Z,44.73
2019-03-30T18:11:03.897Z,65.17
2019-03-30T18:13:32.067Z,45.87
2019-03-30T18:16:01.895Z,42.23
2019-03-30T18:18:31.688Z,43.97
2019-03-30T18:21:01.580Z,47.83
2019-03-30T18:23:31.505Z,50.73
2019-03-30T18:26:01.329Z,46.73
2019-03-30T18:28:31.245Z,51.87
2019-03-30T18:31:01.050Z,45.80
2019-03-30T18:33:30.939Z,48.43
2019-03-30T18:36:04.625Z,50.23
2019-03-30T18:38:37.026Z,53.60
2019-03-30T18:41:06.989Z,56.00
2019-03-30T18:43:37.121Z,49.63
2019-03-30T18:46:06.989Z,50.43
2019-03-30T18:48:37.227Z,43.60
2019-03-30T18:51:07.030Z,40.00
2019-03-30T18:53:37.369Z,41.83
2019-03-30T18:56:07.517Z,32.80
2019-03-30T18:58:41.958Z,30.20
2019-03-30T19:01:10.301Z,24.57
2019-03-30T19:03:40.345Z,25.10
2019-03-30T19:06:10.277Z,23.77
2019-03-30T19:08:40.522Z,27.17
2019-03-30T19:11:10.461Z,25.27
2019-03-30T19:13:40.697Z,26.50
2019-03-30T19:16:10.552Z,25.57
2019-03-30T19:18:40.837Z,23.07
2019-03-30T19:21:10.680Z,21.83
2019-03-30T19:23:40.490Z,20.37
2019-03-30T19:26:10.497Z,20.67
2019-03-30T19:28:40.348Z,21.53
2019-03-30T19:31:10.281Z,25.07
2019-03-30T19:33:40.146Z,26.07
2019-03-30T19:36:10.273Z,30.20
2019-03-30T19:38:40.157Z,30.93
2019-03-30T19:41:10.072Z,37.27
2019-03-30T19:43:40.024Z,57.17
2019-03-30T19:46:09.850Z,49.10
2019-03-30T19:48:39.764Z,53.27
2019-03-30T19:51:09.700Z,50.43
2019-03-30T19:53:39.537Z,46.93
2019-03-30T19:56:09.504Z,44.47
2019-03-30T19:58:39.348Z,30.20
2019-03-30T20:01:09.465Z,32.47
2019-03-30T20:03:40.156Z,24.80
2019-03-30T20:06:10.408Z,27.07
2019-03-30T20:08:40.787Z,27.57
2019-03-30T20:11:10.824Z,24.47
2019-03-30T20:13:40.932Z,50.53
2019-03-30T20:16:12.056Z,43.43
2019-03-30T20:18:42.076Z,38.03
2019-03-30T20:21:12.060Z,42.43
2019-03-30T20:23:42.013Z,42.90
2019-03-30T20:26:12.011Z,51.80
2019-03-30T20:28:41.823Z,40.97
2019-03-30T20:31:12.126Z,39.33
2019-03-30T20:33:42.083Z,34.83
2019-03-30T20:36:12.111Z,36.27
2019-03-30T20:38:41.995Z,31.90
2019-03-30T20:41:11.895Z,35.77
2019-03-30T20:43:41.683Z,31.47
2019-03-30T20:46:11.794Z,36.03
2019-03-30T20:48:41.672Z,32.97
2019-03-30T20:51:11.491Z,37.73
2019-03-30T20:53:41.405Z,35.93
2019-03-30T20:56:11.243Z,35.83
2019-03-30T20:58:41.115Z,36.87
2019-03-30T21:01:11.563Z,33.80
2019-03-30T21:03:41.375Z,32.47
2019-03-30T21:06:11.274Z,33.83
2019-03-30T21:08:41.082Z,35.80
2019-03-30T21:11:10.810Z,37.10
2019-03-30T21:13:40.618Z,32.67
2019-03-30T21:16:10.490Z,36.87
2019-03-30T21:18:40.322Z,34.37
2019-03-30T21:21:10.386Z,33.93
2019-03-30T21:23:40.246Z,34.57
2019-03-30T21:26:10.154Z,31.30
2019-03-30T21:28:39.990Z,33.90
2019-03-30T21:31:09.857Z,34.43
2019-03-30T21:33:39.646Z,34.57
2019-03-30T21:36:09.581Z,35.00
2019-03-30T21:38:39.386Z,35.13
2019-03-30T21:41:09.238Z,35.10
2019-03-30T21:43:39.038Z,34.20
2019-03-30T21:46:08.841Z,34.70
2019-03-30T21:48:38.721Z,33.60
2019-03-30T21:51:08.519Z,35.70
2019-03-30T21:53:38.350Z,36.40
2019-03-30T21:56:08.246Z,38.47
2019-03-30T21:58:38.058Z,37.10
2019-03-30T22:01:07.847Z,35.83
2019-03-30T22:03:37.703Z,36.30
2019-03-30T22:06:07.573Z,35.77
2019-03-30T22:08:38.533Z,35.47
2019-03-30T22:11:08.478Z,34.30
2019-03-30T22:13:38.747Z,32.57
2019-03-30T22:16:08.566Z,37.60
2019-03-30T22:18:38.378Z,35.87
2019-03-30T22:21:08.201Z,35.27
2019-03-30T22:23:38.066Z,37.30
2019-03-30T22:26:07.902Z,38.43
2019-03-30T22:28:37.807Z,37.47
2019-03-30T22:31:07.615Z,34.40
2019-03-30T22:33:37.438Z,34.07
2019-03-30T22:36:07.263Z,33.03
2019-03-30T22:38:37.061Z,34.10
2019-03-30T22:41:06.960Z,33.17
2019-03-30T22:43:36.799Z,34.23
2019-03-30T22:46:07.768Z,33.90
2019-03-30T22:48:37.632Z,33.37
2019-03-30T22:51:07.508Z,31.90
2019-03-30T22:53:37.337Z,30.90
2019-03-30T22:56:07.237Z,28.47
2019-03-30T22:58:37.053Z,31.33
2019-03-30T23:01:09.816Z,31.87
2019-03-30T23:03:39.896Z,34.93
2019-03-30T23:06:09.711Z,35.40
2019-03-30T23:08:39.517Z,32.50
2019-03-30T23:11:09.312Z,34.80
2019-03-30T23:13:39.226Z,37.07
2019-03-30T23:16:09.127Z,38.93
2019-03-30T23:18:39.017Z,37.47
2019-03-30T23:21:08.914Z,37.20
2019-03-30T23:23:38.847Z,39.83
2019-03-30T23:26:08.663Z,43.87
2019-03-30T23:28:38.500Z,39.23
2019-03-30T23:31:08.369Z,40.20
2019-03-30T23:33:38.197Z,36.77
2019-03-30T23:36:08.051Z,36.47
2019-03-30T23:38:37.979Z,35.37
2019-03-30T23:41:07.771Z,36.10
2019-03-30T23:43:38.059Z,35.63
2019-03-30T23:46:07.983Z,35.80
2019-03-30T23:48:37.899Z,37.47
2019-03-30T23:51:07.769Z,36.83
2019-03-30T23:53:37.625Z,35.50
2019-03-30T23:56:22.879Z,36.83
2019-03-30T23:58:52.883Z,36.37
